sensor_id;sensor_type;location;lat;lon;timestamp;P1;durP1;ratioP1;P2;durP2;ratioP2
71148;SDS011;59072;42.144;25.200;2023-11-21T00:02:14;13.77;;;7.05;;
71148;SDS011;59072;42.144;25.200;2023-11-21T00:04:40;12.10;;;7.68;;
71148;SDS011;59072;42.144;25.200;2023-11-21T00:07:05;12.02;;;7.65;;
71148;SDS011;59072;42.144;25.200;2023-11-21T00:09:33;14.20;;;8.00;;
71148;SDS011;59072;42.144;25.200;2023-11-21T00:11:59;11.57;;;6.82;;
71148;SDS011;59072;42.144;25.200;2023-11-21T00:14:25;11.98;;;6.80;;
71148;SDS011;59072;42.144;25.200;2023-11-21T00:16:50;13.95;;;6.10;;
71148;SDS011;59072;42.144;25.200;2023-11-21T00:19:16;19.05;;;12.40;;
71148;SDS011;59072;42.144;25.200;2023-11-21T00:21:42;12.98;;;6.25;;
71148;SDS011;59072;42.144;25.200;2023-11-21T00:24:09;13.03;;;5.90;;
71148;SDS011;59072;42.144;25.200;2023-11-21T00:26:35;9.25;;;5.10;;
71148;SDS011;59072;42.144;25.200;2023-11-21T00:29:03;11.05;;;5.47;;
71148;SDS011;59072;42.144;25.200;2023-11-21T00:31:28;16.20;;;5.30;;
71148;SDS011;59072;42.144;25.200;2023-11-21T00:33:56;19.35;;;15.15;;
71148;SDS011;59072;42.144;25.200;2023-11-21T00:36:21;11.95;;;6.45;;
71148;SDS011;59072;42.144;25.200;2023-11-21T00:38:47;11.43;;;6.28;;
71148;SDS011;59072;42.144;25.200;2023-11-21T00:41:13;13.70;;;7.03;;
71148;SDS011;59072;42.144;25.200;2023-11-21T00:43:39;17.92;;;9.88;;
71148;SDS011;59072;42.144;25.200;2023-11-21T00:46:04;20.85;;;9.75;;
71148;SDS011;59072;42.144;25.200;2023-11-21T00:48:32;18.13;;;9.13;;
71148;SDS011;59072;42.144;25.200;2023-11-21T00:50:58;20.42;;;9.38;;
71148;SDS011;59072;42.144;25.200;2023-11-21T00:53:24;17.88;;;10.95;;
71148;SDS011;59072;42.144;25.200;2023-11-21T00:55:49;13.52;;;7.90;;
71148;SDS011;59072;42.144;25.200;2023-11-21T00:58:15;20.13;;;9.55;;
71148;SDS011;59072;42.144;25.200;2023-11-21T01:00:43;18.80;;;8.85;;
71148;SDS011;59072;42.144;25.200;2023-11-21T01:03:08;15.90;;;8.07;;
71148;SDS011;59072;42.144;25.200;2023-11-21T01:05:34;14.85;;;7.20;;
71148;SDS011;59072;42.144;25.200;2023-11-21T01:08:01;13.35;;;6.75;;
71148;SDS011;59072;42.144;25.200;2023-11-21T01:10:27;11.35;;;6.63;;
71148;SDS011;59072;42.144;25.200;2023-11-21T01:12:52;10.35;;;5.78;;
71148;SDS011;59072;42.144;25.200;2023-11-21T01:15:18;13.27;;;6.95;;
71148;SDS011;59072;42.144;25.200;2023-11-21T01:17:43;9.23;;;4.93;;
71148;SDS011;59072;42.144;25.200;2023-11-21T01:20:09;11.73;;;5.50;;
71148;SDS011;59072;42.144;25.200;2023-11-21T01:22:38;10.25;;;5.18;;
71148;SDS011;59072;42.144;25.200;2023-11-21T01:25:04;11.25;;;5.45;;
71148;SDS011;59072;42.144;25.200;2023-11-21T01:27:32;12.55;;;5.93;;
71148;SDS011;59072;42.144;25.200;2023-11-21T01:29:57;12.90;;;5.95;;
71148;SDS011;59072;42.144;25.200;2023-11-21T01:32:23;11.18;;;6.15;;
71148;SDS011;59072;42.144;25.200;2023-11-21T01:34:50;10.68;;;5.63;;
71148;SDS011;59072;42.144;25.200;2023-11-21T01:37:15;11.68;;;5.95;;
71148;SDS011;59072;42.144;25.200;2023-11-21T01:39:42;11.40;;;6.15;;
71148;SDS011;59072;42.144;25.200;2023-11-21T01:42:09;10.23;;;5.65;;
71148;SDS011;59072;42.144;25.200;2023-11-21T01:44:34;9.88;;;5.30;;
71148;SDS011;59072;42.144;25.200;2023-11-21T01:47:00;9.85;;;5.20;;
71148;SDS011;59072;42.144;25.200;2023-11-21T01:51:45;9.82;;;4.55;;
71148;SDS011;59072;42.144;25.200;2023-11-21T01:54:15;9.48;;;4.60;;
71148;SDS011;59072;42.144;25.200;2023-11-21T01:56:43;10.82;;;5.32;;
71148;SDS011;59072;42.144;25.200;2023-11-21T01:59:11;10.38;;;5.75;;
71148;SDS011;59072;42.144;25.200;2023-11-21T02:01:39;8.35;;;4.90;;
71148;SDS011;59072;42.144;25.200;2023-11-21T02:04:04;8.93;;;4.50;;
71148;SDS011;59072;42.144;25.200;2023-11-21T02:06:30;11.55;;;5.53;;
71148;SDS011;59072;42.144;25.200;2023-11-21T02:08:56;8.02;;;4.60;;
71148;SDS011;59072;42.144;25.200;2023-11-21T02:11:21;9.77;;;5.78;;
71148;SDS011;59072;42.144;25.200;2023-11-21T02:13:46;9.95;;;5.90;;
71148;SDS011;59072;42.144;25.200;2023-11-21T02:16:15;11.70;;;6.03;;
71148;SDS011;59072;42.144;25.200;2023-11-21T02:18:40;15.75;;;6.50;;
71148;SDS011;59072;42.144;25.200;2023-11-21T02:21:06;9.90;;;5.32;;
71148;SDS011;59072;42.144;25.200;2023-11-21T02:23:32;12.93;;;6.72;;
71148;SDS011;59072;42.144;25.200;2023-11-21T02:25:58;10.88;;;5.95;;
71148;SDS011;59072;42.144;25.200;2023-11-21T02:28:24;11.90;;;5.85;;
71148;SDS011;59072;42.144;25.200;2023-11-21T02:30:54;14.10;;;6.85;;
71148;SDS011;59072;42.144;25.200;2023-11-21T02:33:21;11.40;;;6.65;;
71148;SDS011;59072;42.144;25.200;2023-11-21T02:35:46;10.68;;;5.60;;
71148;SDS011;59072;42.144;25.200;2023-11-21T02:38:12;12.27;;;6.70;;
71148;SDS011;59072;42.144;25.200;2023-11-21T02:40:38;13.05;;;6.55;;
71148;SDS011;59072;42.144;25.200;2023-11-21T02:43:04;12.73;;;7.15;;
71148;SDS011;59072;42.144;25.200;2023-11-21T02:45:31;10.43;;;5.72;;
71148;SDS011;59072;42.144;25.200;2023-11-21T02:47:57;11.55;;;5.82;;
71148;SDS011;59072;42.144;25.200;2023-11-21T02:50:23;10.13;;;5.30;;
71148;SDS011;59072;42.144;25.200;2023-11-21T02:52:49;9.70;;;4.50;;
71148;SDS011;59072;42.144;25.200;2023-11-21T02:55:14;8.10;;;4.45;;
71148;SDS011;59072;42.144;25.200;2023-11-21T02:57:40;10.18;;;5.53;;
71148;SDS011;59072;42.144;25.200;2023-11-21T03:00:06;9.20;;;5.60;;
71148;SDS011;59072;42.144;25.200;2023-11-21T03:02:40;11.75;;;5.75;;
71148;SDS011;59072;42.144;25.200;2023-11-21T03:05:06;10.35;;;5.60;;
71148;SDS011;59072;42.144;25.200;2023-11-21T03:07:34;10.53;;;6.17;;
71148;SDS011;59072;42.144;25.200;2023-11-21T03:10:00;13.38;;;6.85;;
71148;SDS011;59072;42.144;25.200;2023-11-21T03:12:25;11.15;;;5.82;;
71148;SDS011;59072;42.144;25.200;2023-11-21T03:14:51;12.35;;;5.88;;
71148;SDS011;59072;42.144;25.200;2023-11-21T03:17:16;9.95;;;5.93;;
71148;SDS011;59072;42.144;25.200;2023-11-21T03:19:42;10.88;;;5.80;;
71148;SDS011;59072;42.144;25.200;2023-11-21T03:22:07;17.10;;;6.32;;
71148;SDS011;59072;42.144;25.200;2023-11-21T03:24:33;12.15;;;6.63;;
71148;SDS011;59072;42.144;25.200;2023-11-21T03:26:59;30.15;;;18.92;;
71148;SDS011;59072;42.144;25.200;2023-11-21T03:29:25;18.85;;;13.23;;
71148;SDS011;59072;42.144;25.200;2023-11-21T03:31:51;18.15;;;11.80;;
71148;SDS011;59072;42.144;25.200;2023-11-21T03:34:19;18.00;;;10.80;;
71148;SDS011;59072;42.144;25.200;2023-11-21T03:36:48;20.48;;;10.93;;
71148;SDS011;59072;42.144;25.200;2023-11-21T03:39:14;17.52;;;11.25;;
71148;SDS011;59072;42.144;25.200;2023-11-21T03:41:39;16.02;;;11.10;;
71148;SDS011;59072;42.144;25.200;2023-11-21T03:44:05;16.83;;;11.02;;
71148;SDS011;59072;42.144;25.200;2023-11-21T03:46:30;14.27;;;8.20;;
71148;SDS011;59072;42.144;25.200;2023-11-21T03:48:55;14.00;;;6.60;;
71148;SDS011;59072;42.144;25.200;2023-11-21T03:51:21;10.65;;;6.18;;
71148;SDS011;59072;42.144;25.200;2023-11-21T03:53:46;9.85;;;4.82;;
71148;SDS011;59072;42.144;25.200;2023-11-21T03:56:13;9.60;;;5.22;;
71148;SDS011;59072;42.144;25.200;2023-11-21T03:58:39;10.40;;;4.80;;
71148;SDS011;59072;42.144;25.200;2023-11-21T04:01:04;9.55;;;5.47;;
71148;SDS011;59072;42.144;25.200;2023-11-21T04:03:30;8.68;;;4.72;;
71148;SDS011;59072;42.144;25.200;2023-11-21T04:05:55;10.18;;;5.45;;
71148;SDS011;59072;42.144;25.200;2023-11-21T04:08:21;13.38;;;5.47;;
71148;SDS011;59072;42.144;25.200;2023-11-21T04:10:46;9.52;;;5.07;;
71148;SDS011;59072;42.144;25.200;2023-11-21T04:13:11;12.13;;;5.03;;
71148;SDS011;59072;42.144;25.200;2023-11-21T04:15:37;9.73;;;5.07;;
71148;SDS011;59072;42.144;25.200;2023-11-21T04:18:02;11.68;;;6.10;;
71148;SDS011;59072;42.144;25.200;2023-11-21T04:20:28;14.90;;;7.70;;
71148;SDS011;59072;42.144;25.200;2023-11-21T04:22:53;11.07;;;6.30;;
71148;SDS011;59072;42.144;25.200;2023-11-21T04:25:19;11.48;;;5.57;;
71148;SDS011;59072;42.144;25.200;2023-11-21T04:27:44;13.18;;;6.53;;
71148;SDS011;59072;42.144;25.200;2023-11-21T04:30:10;12.27;;;6.00;;
71148;SDS011;59072;42.144;25.200;2023-11-21T04:32:37;11.88;;;4.93;;
71148;SDS011;59072;42.144;25.200;2023-11-21T04:35:04;9.20;;;5.18;;
71148;SDS011;59072;42.144;25.200;2023-11-21T04:37:30;9.48;;;5.18;;
71148;SDS011;59072;42.144;25.200;2023-11-21T04:39:55;15.70;;;6.15;;
71148;SDS011;59072;42.144;25.200;2023-11-21T04:42:21;12.35;;;5.38;;
71148;SDS011;59072;42.144;25.200;2023-11-21T04:44:46;9.75;;;4.75;;
71148;SDS011;59072;42.144;25.200;2023-11-21T04:47:12;10.45;;;5.50;;
71148;SDS011;59072;42.144;25.200;2023-11-21T04:49:39;10.52;;;6.40;;
71148;SDS011;59072;42.144;25.200;2023-11-21T04:52:07;11.52;;;5.75;;
71148;SDS011;59072;42.144;25.200;2023-11-21T04:54:34;8.52;;;5.15;;
71148;SDS011;59072;42.144;25.200;2023-11-21T04:57:00;10.18;;;5.97;;
71148;SDS011;59072;42.144;25.200;2023-11-21T04:59:26;9.90;;;5.35;;
71148;SDS011;59072;42.144;25.200;2023-11-21T05:01:52;12.10;;;6.22;;
71148;SDS011;59072;42.144;25.200;2023-11-21T05:04:18;10.00;;;5.60;;
71148;SDS011;59072;42.144;25.200;2023-11-21T05:06:44;9.70;;;6.15;;
71148;SDS011;59072;42.144;25.200;2023-11-21T05:09:09;15.57;;;6.32;;
71148;SDS011;59072;42.144;25.200;2023-11-21T05:11:37;10.75;;;6.50;;
71148;SDS011;59072;42.144;25.200;2023-11-21T05:14:03;13.45;;;7.25;;
71148;SDS011;59072;42.144;25.200;2023-11-21T05:16:30;17.52;;;8.02;;
71148;SDS011;59072;42.144;25.200;2023-11-21T05:18:56;15.98;;;7.60;;
71148;SDS011;59072;42.144;25.200;2023-11-21T05:21:25;13.02;;;7.82;;
71148;SDS011;59072;42.144;25.200;2023-11-21T05:23:51;15.73;;;7.75;;
71148;SDS011;59072;42.144;25.200;2023-11-21T05:26:17;14.50;;;7.72;;
71148;SDS011;59072;42.144;25.200;2023-11-21T05:28:43;19.48;;;8.27;;
71148;SDS011;59072;42.144;25.200;2023-11-21T05:31:08;15.88;;;8.75;;
71148;SDS011;59072;42.144;25.200;2023-11-21T05:33:33;18.65;;;9.95;;
71148;SDS011;59072;42.144;25.200;2023-11-21T05:35:59;15.32;;;8.35;;
71148;SDS011;59072;42.144;25.200;2023-11-21T05:38:24;13.48;;;7.90;;
71148;SDS011;59072;42.144;25.200;2023-11-21T05:40:50;15.60;;;8.00;;
71148;SDS011;59072;42.144;25.200;2023-11-21T05:43:16;18.48;;;8.88;;
71148;SDS011;59072;42.144;25.200;2023-11-21T05:45:41;18.63;;;9.07;;
71148;SDS011;59072;42.144;25.200;2023-11-21T05:48:07;54.70;;;30.08;;
71148;SDS011;59072;42.144;25.200;2023-11-21T05:50:32;292.55;;;131.23;;
71148;SDS011;59072;42.144;25.200;2023-11-21T05:52:58;322.20;;;138.43;;
71148;SDS011;59072;42.144;25.200;2023-11-21T05:55:25;295.17;;;134.23;;
71148;SDS011;59072;42.144;25.200;2023-11-21T05:57:51;226.00;;;104.82;;
71148;SDS011;59072;42.144;25.200;2023-11-21T06:00:16;178.68;;;89.90;;
71148;SDS011;59072;42.144;25.200;2023-11-21T06:05:11;108.80;;;56.00;;
71148;SDS011;59072;42.144;25.200;2023-11-21T06:07:36;107.85;;;59.30;;
71148;SDS011;59072;42.144;25.200;2023-11-21T06:10:03;115.47;;;68.85;;
71148;SDS011;59072;42.144;25.200;2023-11-21T06:12:31;112.47;;;63.35;;
71148;SDS011;59072;42.144;25.200;2023-11-21T06:15:00;126.43;;;69.15;;
71148;SDS011;59072;42.144;25.200;2023-11-21T06:17:29;149.88;;;88.53;;
71148;SDS011;59072;42.144;25.200;2023-11-21T06:19:55;95.05;;;57.75;;
71148;SDS011;59072;42.144;25.200;2023-11-21T06:22:21;69.90;;;50.17;;
71148;SDS011;59072;42.144;25.200;2023-11-21T06:24:46;65.57;;;41.75;;
71148;SDS011;59072;42.144;25.200;2023-11-21T06:27:12;62.08;;;36.15;;
71148;SDS011;59072;42.144;25.200;2023-11-21T06:29:37;68.10;;;37.72;;
71148;SDS011;59072;42.144;25.200;2023-11-21T06:32:03;86.85;;;52.28;;
71148;SDS011;59072;42.144;25.200;2023-11-21T06:34:30;49.55;;;30.63;;
71148;SDS011;59072;42.144;25.200;2023-11-21T06:36:56;40.67;;;24.27;;
71148;SDS011;59072;42.144;25.200;2023-11-21T06:39:21;31.85;;;21.02;;
71148;SDS011;59072;42.144;25.200;2023-11-21T06:41:48;34.08;;;23.17;;
71148;SDS011;59072;42.144;25.200;2023-11-21T06:44:14;40.13;;;25.33;;
71148;SDS011;59072;42.144;25.200;2023-11-21T06:46:40;111.68;;;52.78;;
71148;SDS011;59072;42.144;25.200;2023-11-21T06:49:07;133.68;;;66.60;;
71148;SDS011;59072;42.144;25.200;2023-11-21T06:51:33;57.65;;;32.30;;
71148;SDS011;59072;42.144;25.200;2023-11-21T06:53:58;32.08;;;21.50;;
71148;SDS011;59072;42.144;25.200;2023-11-21T06:56:24;26.80;;;17.88;;
71148;SDS011;59072;42.144;25.200;2023-11-21T06:58:49;26.80;;;18.92;;
71148;SDS011;59072;42.144;25.200;2023-11-21T07:01:18;27.50;;;17.88;;
71148;SDS011;59072;42.144;25.200;2023-11-21T07:03:44;30.30;;;22.02;;
71148;SDS011;59072;42.144;25.200;2023-11-21T07:06:10;30.85;;;23.50;;
71148;SDS011;59072;42.144;25.200;2023-11-21T07:08:36;24.83;;;17.13;;
71148;SDS011;59072;42.144;25.200;2023-11-21T07:11:02;19.30;;;11.80;;
71148;SDS011;59072;42.144;25.200;2023-11-21T07:13:28;14.77;;;10.00;;
71148;SDS011;59072;42.144;25.200;2023-11-21T07:15:54;13.55;;;9.30;;
71148;SDS011;59072;42.144;25.200;2023-11-21T07:18:19;13.70;;;8.80;;
71148;SDS011;59072;42.144;25.200;2023-11-21T07:20:45;19.98;;;12.05;;
71148;SDS011;59072;42.144;25.200;2023-11-21T07:23:11;20.48;;;12.65;;
71148;SDS011;59072;42.144;25.200;2023-11-21T07:25:36;23.52;;;13.93;;
71148;SDS011;59072;42.144;25.200;2023-11-21T07:28:01;19.83;;;12.68;;
71148;SDS011;59072;42.144;25.200;2023-11-21T07:30:27;19.17;;;11.80;;
71148;SDS011;59072;42.144;25.200;2023-11-21T07:32:53;17.45;;;11.68;;
71148;SDS011;59072;42.144;25.200;2023-11-21T07:35:18;17.42;;;11.10;;
71148;SDS011;59072;42.144;25.200;2023-11-21T07:37:44;18.40;;;12.13;;
71148;SDS011;59072;42.144;25.200;2023-11-21T07:40:09;16.52;;;11.05;;
71148;SDS011;59072;42.144;25.200;2023-11-21T07:42:36;16.35;;;10.90;;
71148;SDS011;59072;42.144;25.200;2023-11-21T07:45:03;14.82;;;8.93;;
71148;SDS011;59072;42.144;25.200;2023-11-21T07:47:29;89.90;;;34.38;;
71148;SDS011;59072;42.144;25.200;2023-11-21T07:49:55;52.85;;;23.10;;
71148;SDS011;59072;42.144;25.200;2023-11-21T07:52:23;97.68;;;43.47;;
71148;SDS011;59072;42.144;25.200;2023-11-21T07:54:49;21.30;;;11.23;;
71148;SDS011;59072;42.144;25.200;2023-11-21T07:57:14;10.75;;;6.10;;
71148;SDS011;59072;42.144;25.200;2023-11-21T07:59:40;9.25;;;4.82;;
71148;SDS011;59072;42.144;25.200;2023-11-21T08:02:06;9.90;;;5.00;;
71148;SDS011;59072;42.144;25.200;2023-11-21T08:04:32;8.95;;;4.78;;
71148;SDS011;59072;42.144;25.200;2023-11-21T08:06:57;8.70;;;4.30;;
71148;SDS011;59072;42.144;25.200;2023-11-21T08:09:23;8.00;;;4.53;;
71148;SDS011;59072;42.144;25.200;2023-11-21T08:11:49;10.68;;;5.60;;
71148;SDS011;59072;42.144;25.200;2023-11-21T08:14:14;9.25;;;4.75;;
71148;SDS011;59072;42.144;25.200;2023-11-21T08:16:40;7.65;;;4.25;;
71148;SDS011;59072;42.144;25.200;2023-11-21T08:19:06;7.32;;;3.63;;
71148;SDS011;59072;42.144;25.200;2023-11-21T08:21:31;9.10;;;4.28;;
71148;SDS011;59072;42.144;25.200;2023-11-21T08:23:56;7.75;;;4.20;;
71148;SDS011;59072;42.144;25.200;2023-11-21T08:26:22;7.78;;;4.25;;
71148;SDS011;59072;42.144;25.200;2023-11-21T08:28:48;10.52;;;4.38;;
71148;SDS011;59072;42.144;25.200;2023-11-21T08:31:14;11.40;;;6.03;;
71148;SDS011;59072;42.144;25.200;2023-11-21T08:33:39;32.17;;;14.75;;
71148;SDS011;59072;42.144;25.200;2023-11-21T08:36:08;14.60;;;7.57;;
71148;SDS011;59072;42.144;25.200;2023-11-21T08:38:36;8.25;;;4.43;;
71148;SDS011;59072;42.144;25.200;2023-11-21T08:41:05;10.10;;;4.80;;
71148;SDS011;59072;42.144;25.200;2023-11-21T08:43:37;9.10;;;4.75;;
71148;SDS011;59072;42.144;25.200;2023-11-21T08:46:05;8.85;;;4.82;;
71148;SDS011;59072;42.144;25.200;2023-11-21T08:48:36;8.80;;;4.95;;
71148;SDS011;59072;42.144;25.200;2023-11-21T08:51:02;8.95;;;4.57;;
71148;SDS011;59072;42.144;25.200;2023-11-21T08:53:29;6.85;;;3.95;;
71148;SDS011;59072;42.144;25.200;2023-11-21T08:55:56;6.43;;;3.67;;
71148;SDS011;59072;42.144;25.200;2023-11-21T08:58:21;7.28;;;3.50;;
71148;SDS011;59072;42.144;25.200;2023-11-21T09:00:47;8.50;;;4.43;;
71148;SDS011;59072;42.144;25.200;2023-11-21T09:03:12;14.32;;;8.88;;
71148;SDS011;59072;42.144;25.200;2023-11-21T09:05:38;445.83;;;227.93;;
71148;SDS011;59072;42.144;25.200;2023-11-21T09:08:04;29.35;;;14.95;;
71148;SDS011;59072;42.144;25.200;2023-11-21T09:10:30;7.30;;;3.38;;
71148;SDS011;59072;42.144;25.200;2023-11-21T09:12:56;8.07;;;4.05;;
71148;SDS011;59072;42.144;25.200;2023-11-21T09:15:21;7.88;;;4.43;;
71148;SDS011;59072;42.144;25.200;2023-11-21T09:17:47;7.05;;;3.78;;
71148;SDS011;59072;42.144;25.200;2023-11-21T09:20:12;10.20;;;4.85;;
71148;SDS011;59072;42.144;25.200;2023-11-21T09:22:39;9.45;;;4.07;;
71148;SDS011;59072;42.144;25.200;2023-11-21T09:25:05;20.00;;;9.48;;
71148;SDS011;59072;42.144;25.200;2023-11-21T09:27:33;14.25;;;8.27;;
71148;SDS011;59072;42.144;25.200;2023-11-21T09:30:00;10.55;;;5.50;;
71148;SDS011;59072;42.144;25.200;2023-11-21T09:32:26;7.93;;;3.63;;
71148;SDS011;59072;42.144;25.200;2023-11-21T09:34:51;5.93;;;3.22;;
71148;SDS011;59072;42.144;25.200;2023-11-21T09:37:18;8.60;;;3.72;;
71148;SDS011;59072;42.144;25.200;2023-11-21T09:39:44;8.40;;;3.88;;
71148;SDS011;59072;42.144;25.200;2023-11-21T09:47:26;7.28;;;3.13;;
71148;SDS011;59072;42.144;25.200;2023-11-21T09:49:53;7.65;;;3.63;;
71148;SDS011;59072;42.144;25.200;2023-11-21T09:52:24;6.22;;;3.67;;
71148;SDS011;59072;42.144;25.200;2023-11-21T09:54:55;6.95;;;3.85;;
71148;SDS011;59072;42.144;25.200;2023-11-21T09:57:23;7.60;;;3.50;;
71148;SDS011;59072;42.144;25.200;2023-11-21T09:59:54;6.95;;;4.05;;
71148;SDS011;59072;42.144;25.200;2023-11-21T10:02:24;11.25;;;4.60;;
71148;SDS011;59072;42.144;25.200;2023-11-21T10:04:53;6.82;;;3.85;;
71148;SDS011;59072;42.144;25.200;2023-11-21T10:07:19;6.65;;;4.25;;
71148;SDS011;59072;42.144;25.200;2023-11-21T10:09:46;8.73;;;4.30;;
71148;SDS011;59072;42.144;25.200;2023-11-21T10:12:13;8.57;;;4.60;;
71148;SDS011;59072;42.144;25.200;2023-11-21T10:14:41;8.52;;;4.63;;
71148;SDS011;59072;42.144;25.200;2023-11-21T10:19:37;11.63;;;5.03;;
71148;SDS011;59072;42.144;25.200;2023-11-21T10:22:04;11.85;;;5.40;;
71148;SDS011;59072;42.144;25.200;2023-11-21T10:24:32;8.50;;;5.30;;
71148;SDS011;59072;42.144;25.200;2023-11-21T10:26:57;9.32;;;4.82;;
71148;SDS011;59072;42.144;25.200;2023-11-21T10:29:23;9.80;;;4.88;;
71148;SDS011;59072;42.144;25.200;2023-11-21T10:31:49;10.95;;;4.78;;
71148;SDS011;59072;42.144;25.200;2023-11-21T10:34:19;9.73;;;5.53;;
71148;SDS011;59072;42.144;25.200;2023-11-21T10:36:45;9.75;;;5.20;;
71148;SDS011;59072;42.144;25.200;2023-11-21T10:39:18;9.82;;;5.72;;
71148;SDS011;59072;42.144;25.200;2023-11-21T10:41:48;14.68;;;6.57;;
71148;SDS011;59072;42.144;25.200;2023-11-21T10:44:19;15.30;;;7.67;;
71148;SDS011;59072;42.144;25.200;2023-11-21T10:46:51;9.55;;;4.70;;
71148;SDS011;59072;42.144;25.200;2023-11-21T10:49:21;9.02;;;4.47;;
71148;SDS011;59072;42.144;25.200;2023-11-21T10:51:49;10.85;;;5.15;;
71148;SDS011;59072;42.144;25.200;2023-11-21T10:56:47;8.30;;;5.00;;
71148;SDS011;59072;42.144;25.200;2023-11-21T10:59:16;7.38;;;4.40;;
71148;SDS011;59072;42.144;25.200;2023-11-21T11:01:44;11.30;;;5.90;;
71148;SDS011;59072;42.144;25.200;2023-11-21T11:04:11;10.43;;;5.82;;
71148;SDS011;59072;42.144;25.200;2023-11-21T11:06:44;9.43;;;5.22;;
71148;SDS011;59072;42.144;25.200;2023-11-21T11:09:30;12.70;;;5.93;;
71148;SDS011;59072;42.144;25.200;2023-11-21T11:11:59;9.02;;;4.85;;
71148;SDS011;59072;42.144;25.200;2023-11-21T11:14:27;12.73;;;6.28;;
71148;SDS011;59072;42.144;25.200;2023-11-21T11:16:53;10.10;;;5.25;;
71148;SDS011;59072;42.144;25.200;2023-11-21T11:19:20;11.60;;;5.50;;
71148;SDS011;59072;42.144;25.200;2023-11-21T11:21:50;21.15;;;11.70;;
71148;SDS011;59072;42.144;25.200;2023-11-21T11:33:11;9.87;;;6.33;;
71148;SDS011;59072;42.144;25.200;2023-11-21T11:38:33;11.02;;;7.72;;
71148;SDS011;59072;42.144;25.200;2023-11-21T11:41:04;9.85;;;7.28;;
71148;SDS011;59072;42.144;25.200;2023-11-21T11:43:31;9.65;;;6.20;;
71148;SDS011;59072;42.144;25.200;2023-11-21T11:46:09;12.82;;;7.28;;
71148;SDS011;59072;42.144;25.200;2023-11-21T11:48:38;13.38;;;7.47;;
71148;SDS011;59072;42.144;25.200;2023-11-21T11:51:06;9.60;;;4.47;;
71148;SDS011;59072;42.144;25.200;2023-11-21T11:53:46;7.07;;;4.45;;
71148;SDS011;59072;42.144;25.200;2023-11-21T11:58:48;7.47;;;4.03;;
71148;SDS011;59072;42.144;25.200;2023-11-21T12:01:19;11.47;;;5.53;;
71148;SDS011;59072;42.144;25.200;2023-11-21T12:03:49;19.17;;;11.48;;
71148;SDS011;59072;42.144;25.200;2023-11-21T12:06:39;13.80;;;7.88;;
71148;SDS011;59072;42.144;25.200;2023-11-21T12:09:06;15.27;;;7.40;;
71148;SDS011;59072;42.144;25.200;2023-11-21T12:11:31;11.98;;;6.90;;
71148;SDS011;59072;42.144;25.200;2023-11-21T12:13:58;21.88;;;12.70;;
71148;SDS011;59072;42.144;25.200;2023-11-21T12:16:25;57.40;;;34.70;;
71148;SDS011;59072;42.144;25.200;2023-11-21T12:18:52;38.88;;;19.63;;
71148;SDS011;59072;42.144;25.200;2023-11-21T12:21:19;28.42;;;17.20;;
71148;SDS011;59072;42.144;25.200;2023-11-21T12:23:45;10.80;;;6.00;;
71148;SDS011;59072;42.144;25.200;2023-11-21T12:26:12;8.50;;;5.07;;
71148;SDS011;59072;42.144;25.200;2023-11-21T12:28:38;22.02;;;11.02;;
71148;SDS011;59072;42.144;25.200;2023-11-21T12:31:04;22.92;;;12.10;;
71148;SDS011;59072;42.144;25.200;2023-11-21T12:33:32;23.10;;;12.20;;
71148;SDS011;59072;42.144;25.200;2023-11-21T12:35:58;20.23;;;10.70;;
71148;SDS011;59072;42.144;25.200;2023-11-21T12:38:24;36.13;;;21.92;;
71148;SDS011;59072;42.144;25.200;2023-11-21T12:40:50;30.75;;;19.60;;
71148;SDS011;59072;42.144;25.200;2023-11-21T12:43:16;27.50;;;15.27;;
71148;SDS011;59072;42.144;25.200;2023-11-21T12:45:43;25.67;;;14.68;;
71148;SDS011;59072;42.144;25.200;2023-11-21T12:48:09;24.05;;;12.35;;
71148;SDS011;59072;42.144;25.200;2023-11-21T12:50:36;18.08;;;9.90;;
71148;SDS011;59072;42.144;25.200;2023-11-21T12:53:04;23.00;;;13.43;;
71148;SDS011;59072;42.144;25.200;2023-11-21T12:55:35;26.55;;;14.85;;
71148;SDS011;59072;42.144;25.200;2023-11-21T12:58:02;23.75;;;12.70;;
71148;SDS011;59072;42.144;25.200;2023-11-21T13:00:43;28.92;;;16.33;;
71148;SDS011;59072;42.144;25.200;2023-11-21T13:03:12;27.63;;;16.20;;
71148;SDS011;59072;42.144;25.200;2023-11-21T13:05:42;29.95;;;14.57;;
71148;SDS011;59072;42.144;25.200;2023-11-21T13:08:10;23.40;;;14.18;;
71148;SDS011;59072;42.144;25.200;2023-11-21T13:13:10;24.38;;;11.23;;
71148;SDS011;59072;42.144;25.200;2023-11-21T13:15:46;18.52;;;8.70;;
71148;SDS011;59072;42.144;25.200;2023-11-21T13:18:25;18.70;;;8.23;;
71148;SDS011;59072;42.144;25.200;2023-11-21T13:20:52;16.55;;;7.93;;
71148;SDS011;59072;42.144;25.200;2023-11-21T13:23:18;12.52;;;6.60;;
71148;SDS011;59072;42.144;25.200;2023-11-21T13:25:43;12.20;;;6.07;;
71148;SDS011;59072;42.144;25.200;2023-11-21T13:28:11;12.55;;;6.53;;
71148;SDS011;59072;42.144;25.200;2023-11-21T13:30:37;13.75;;;8.55;;
71148;SDS011;59072;42.144;25.200;2023-11-21T13:33:05;14.82;;;9.20;;
71148;SDS011;59072;42.144;25.200;2023-11-21T13:35:33;20.45;;;13.40;;
71148;SDS011;59072;42.144;25.200;2023-11-21T13:38:12;17.92;;;12.40;;
71148;SDS011;59072;42.144;25.200;2023-11-21T13:40:39;22.40;;;12.48;;
71148;SDS011;59072;42.144;25.200;2023-11-21T13:43:10;14.40;;;7.60;;
71148;SDS011;59072;42.144;25.200;2023-11-21T13:45:45;26.48;;;16.23;;
71148;SDS011;59072;42.144;25.200;2023-11-21T13:48:11;21.52;;;11.25;;
71148;SDS011;59072;42.144;25.200;2023-11-21T13:50:45;18.05;;;7.47;;
71148;SDS011;59072;42.144;25.200;2023-11-21T13:53:20;18.85;;;7.85;;
71148;SDS011;59072;42.144;25.200;2023-11-21T13:55:52;17.85;;;7.53;;
71148;SDS011;59072;42.144;25.200;2023-11-21T13:58:23;15.73;;;7.10;;
71148;SDS011;59072;42.144;25.200;2023-11-21T14:01:07;24.80;;;15.73;;
71148;SDS011;59072;42.144;25.200;2023-11-21T14:03:53;19.25;;;11.23;;
71148;SDS011;59072;42.144;25.200;2023-11-21T14:06:23;19.92;;;11.20;;
71148;SDS011;59072;42.144;25.200;2023-11-21T14:08:57;23.65;;;12.40;;
71148;SDS011;59072;42.144;25.200;2023-11-21T14:11:23;20.92;;;11.65;;
71148;SDS011;59072;42.144;25.200;2023-11-21T14:13:49;18.65;;;10.63;;
71148;SDS011;59072;42.144;25.200;2023-11-21T14:16:15;16.80;;;10.00;;
71148;SDS011;59072;42.144;25.200;2023-11-21T14:18:42;22.50;;;11.25;;
71148;SDS011;59072;42.144;25.200;2023-11-21T14:21:21;19.48;;;11.40;;
71148;SDS011;59072;42.144;25.200;2023-11-21T14:23:46;22.70;;;12.43;;
71148;SDS011;59072;42.144;25.200;2023-11-21T14:26:13;29.20;;;14.13;;
71148;SDS011;59072;42.144;25.200;2023-11-21T14:28:40;26.17;;;15.18;;
71148;SDS011;59072;42.144;25.200;2023-11-21T14:31:06;25.40;;;13.52;;
71148;SDS011;59072;42.144;25.200;2023-11-21T14:33:32;29.58;;;19.85;;
71148;SDS011;59072;42.144;25.200;2023-11-21T14:35:58;27.23;;;16.08;;
71148;SDS011;59072;42.144;25.200;2023-11-21T14:38:24;63.53;;;44.58;;
71148;SDS011;59072;42.144;25.200;2023-11-21T14:40:49;26.60;;;15.40;;
71148;SDS011;59072;42.144;25.200;2023-11-21T14:43:15;18.88;;;9.20;;
71148;SDS011;59072;42.144;25.200;2023-11-21T14:45:41;15.52;;;6.90;;
71148;SDS011;59072;42.144;25.200;2023-11-21T14:48:07;13.10;;;6.78;;
71148;SDS011;59072;42.144;25.200;2023-11-21T14:50:41;12.90;;;6.20;;
71148;SDS011;59072;42.144;25.200;2023-11-21T14:53:07;13.25;;;6.03;;